KCCY/CCY METAR and TAF weather

Enter ICAO airport designator
Station Type Date Time Source
KCCY METAR 2021/09/27 08:15 UTC NOAA

KCCY 270815Z AUTO 00000KT 10SM CLR 14/12 A2972 RMK AO2


Station Type Date Time Source
KCCY Decoded METAR 2021/09/27 08:15 UTC NOAA

Charles City, IA, United States (KCCY) 43-04N 092-37W
Sep 27, 2021 - 04:15 AM EDT / 2021.09.27 0815 UTC
Wind: Calm:0
Visibility: 10 mile(s):0
Sky conditions: clear
Temperature: 57 F (14 C)
Dew Point: 53 F (12 C)
Relative Humidity: 87%
Pressure (altimeter): 29.72 in. Hg (1006 hPa)
ob: KCCY 270815Z AUTO 00000KT 10SM CLR 14/12 A2972 RMK AO2
cycle: 8

Station Type Date Time Source
KCCY TAF UTC NOAA

Error!

Example: see airport list